createdAt,value
2018-11-23T00:00:23.336Z,90.40
2018-11-23T00:02:52.527Z,90.40
2018-11-23T00:05:21.432Z,90.40
2018-11-23T00:07:50.550Z,90.40
2018-11-23T00:10:21.487Z,90.50
2018-11-23T00:12:50.153Z,90.50
2018-11-23T00:15:19.989Z,90.40
2018-11-23T00:17:48.676Z,90.40
2018-11-23T00:20:18.651Z,90.20
2018-11-23T00:22:47.255Z,90.20
2018-11-23T00:25:18.010Z,90.50
2018-11-23T00:27:46.702Z,90.60
2018-11-23T00:30:18.162Z,90.30
2018-11-23T00:32:47.249Z,90.10
2018-11-23T00:35:17.600Z,89.90
2018-11-23T00:37:46.752Z,90.00
2018-11-23T00:40:25.901Z,89.60
2018-11-23T00:42:54.872Z,89.70
2018-11-23T00:45:23.585Z,90.00
2018-11-23T00:47:52.934Z,89.80
2018-11-23T00:50:22.685Z,89.70
2018-11-23T00:52:51.980Z,89.40
2018-11-23T00:55:21.693Z,90.00
2018-11-23T00:57:50.445Z,90.00
2018-11-23T01:00:22.230Z,90.10
2018-11-23T01:02:51.332Z,90.10
2018-11-23T01:05:20.046Z,89.70
2018-11-23T01:07:49.129Z,89.50
2018-11-23T01:10:19.025Z,88.90
2018-11-23T01:12:48.678Z,89.20
2018-11-23T01:15:17.348Z,89.50
2018-11-23T01:17:46.098Z,89.60
2018-11-23T01:20:16.962Z,89.60
2018-11-23T01:22:46.056Z,89.60
2018-11-23T01:25:15.772Z,89.70
2018-11-23T01:27:45.994Z,90.10
2018-11-23T01:30:17.213Z,90.20
2018-11-23T01:32:46.152Z,90.10
2018-11-23T01:35:15.197Z,90.10
2018-11-23T01:37:44.817Z,90.10
2018-11-23T01:40:17.436Z,90.10
2018-11-23T01:42:46.592Z,90.10
2018-11-23T01:45:15.484Z,90.00
2018-11-23T01:47:45.088Z,90.00
2018-11-23T01:50:17.005Z,89.90
2018-11-23T01:52:46.984Z,90.10
2018-11-23T01:55:16.596Z,90.10
2018-11-23T01:57:45.569Z,90.10
2018-11-23T02:00:16.880Z,90.10
2018-11-23T02:02:46.446Z,90.10
2018-11-23T02:05:15.122Z,90.10
2018-11-23T02:07:43.845Z,90.10
2018-11-23T02:10:13.724Z,90.20
2018-11-23T02:12:42.421Z,90.20
2018-11-23T02:15:13.853Z,90.30
2018-11-23T02:17:42.558Z,90.20
2018-11-23T02:20:12.501Z,90.30
2018-11-23T02:22:41.202Z,90.40
2018-11-23T02:25:09.910Z,90.40
2018-11-23T02:27:38.608Z,90.40
2018-11-23T02:30:23.565Z,90.40
2018-11-23T02:32:52.264Z,90.40
2018-11-23T02:35:20.960Z,90.40
2018-11-23T02:37:49.651Z,90.60
2018-11-23T02:40:19.171Z,90.70
2018-11-23T02:42:48.037Z,90.50
2018-11-23T02:45:18.884Z,90.50
2018-11-23T02:47:48.068Z,90.50
2018-11-23T02:50:16.752Z,90.60
2018-11-23T02:52:45.996Z,90.70
2018-11-23T02:55:16.272Z,90.70
2018-11-23T02:57:45.125Z,90.60
2018-11-23T03:00:17.058Z,90.90
2018-11-23T03:02:45.758Z,90.90
2018-11-23T03:05:17.082Z,91.00
2018-11-23T03:07:45.822Z,91.10
2018-11-23T03:10:15.780Z,91.10
2018-11-23T03:12:45.984Z,91.00
2018-11-23T03:15:17.460Z,91.10
2018-11-23T03:17:46.630Z,91.10
2018-11-23T03:20:17.592Z,91.30
2018-11-23T03:22:46.268Z,91.50
2018-11-23T03:25:15.358Z,91.70
2018-11-23T03:27:44.945Z,91.70
2018-11-23T03:30:15.922Z,91.60
2018-11-23T03:32:46.129Z,91.60
2018-11-23T03:35:15.181Z,91.60
2018-11-23T03:37:44.941Z,91.70
2018-11-23T03:40:12.906Z,91.50
2018-11-23T03:42:41.876Z,91.60
2018-11-23T03:45:11.805Z,91.90
2018-11-23T03:47:41.023Z,91.90
2018-11-23T03:50:10.625Z,91.80
2018-11-23T03:52:39.301Z,91.60
2018-11-23T03:55:07.968Z,91.60
2018-11-23T03:57:36.653Z,91.40
2018-11-23T04:00:17.152Z,91.40
2018-11-23T04:02:40.337Z,91.30
2018-11-23T04:05:09.179Z,91.30
2018-11-23T04:07:37.866Z,91.50
2018-11-23T04:10:07.665Z,91.70
2018-11-23T04:12:36.372Z,91.70
2018-11-23T04:15:05.659Z,91.60
2018-11-23T04:17:34.328Z,91.60
2018-11-23T04:20:02.975Z,91.60
2018-11-23T04:22:31.645Z,91.40
2018-11-23T04:25:00.344Z,91.20
2018-11-23T04:27:29.005Z,91.50
2018-11-23T04:29:58.290Z,91.30
2018-11-23T04:32:27.062Z,91.30
2018-11-23T04:34:55.775Z,91.30
2018-11-23T04:37:24.516Z,91.40
2018-11-23T04:39:53.188Z,91.40
2018-11-23T04:42:21.882Z,91.20
2018-11-23T04:44:50.565Z,91.30
2018-11-23T04:47:19.237Z,91.60
2018-11-23T04:49:47.903Z,91.60
2018-11-23T04:52:16.590Z,91.80
2018-11-23T04:54:45.389Z,91.70
2018-11-23T04:57:14.068Z,91.60
2018-11-23T04:59:42.729Z,91.70
2018-11-23T05:02:11.371Z,91.80
2018-11-23T05:04:40.037Z,91.80
2018-11-23T05:07:08.715Z,91.60
2018-11-23T05:09:37.396Z,91.60
2018-11-23T05:12:06.123Z,91.50
2018-11-23T05:14:34.813Z,91.50
2018-11-23T05:17:03.465Z,91.50
2018-11-23T05:19:32.138Z,91.40
2018-11-23T05:22:00.777Z,91.50
2018-11-23T05:24:29.424Z,91.40
2018-11-23T05:26:58.076Z,91.40
2018-11-23T05:29:26.725Z,91.20
2018-11-23T05:31:55.378Z,91.10
2018-11-23T05:34:24.055Z,91.10
2018-11-23T05:36:52.726Z,90.80
2018-11-23T05:39:21.361Z,90.70
2018-11-23T05:41:49.992Z,90.70
2018-11-23T05:44:18.608Z,90.70
2018-11-23T05:46:47.413Z,90.60
2018-11-23T05:49:16.174Z,90.40
2018-11-23T05:51:44.838Z,90.30
2018-11-23T05:54:13.461Z,90.10
2018-11-23T05:56:42.143Z,90.20
2018-11-23T05:59:10.824Z,90.30
2018-11-23T06:01:39.486Z,90.10
2018-11-23T06:04:08.113Z,90.20
2018-11-23T06:06:42.220Z,90.30
2018-11-23T06:09:06.668Z,90.20
2018-11-23T06:11:35.386Z,90.30
2018-11-23T06:14:04.120Z,90.70
2018-11-23T06:16:33.029Z,90.40
2018-11-23T06:19:01.654Z,90.40
2018-11-23T06:21:30.304Z,90.20
2018-11-23T06:23:58.945Z,90.30
2018-11-23T06:26:28.384Z,90.40
2018-11-23T06:28:57.004Z,90.50
2018-11-23T06:31:25.688Z,90.30
2018-11-23T06:34:01.004Z,90.30
2018-11-23T06:36:29.670Z,90.30
2018-11-23T06:38:58.321Z,90.70
2018-11-23T06:41:27.061Z,90.30
2018-11-23T06:43:55.704Z,90.20
2018-11-23T06:46:24.353Z,90.40
2018-11-23T06:48:53.052Z,90.20
2018-11-23T06:51:21.689Z,90.40
2018-11-23T06:53:50.333Z,90.40
2018-11-23T06:56:19.008Z,90.40
2018-11-23T06:58:47.748Z,90.70
2018-11-23T07:01:17.317Z,90.80
2018-11-23T07:03:45.996Z,90.80
2018-11-23T07:06:14.648Z,91.00
2018-11-23T07:08:43.390Z,90.90
2018-11-23T07:11:12.033Z,90.90
2018-11-23T07:13:40.737Z,90.90
2018-11-23T07:16:09.428Z,90.90
2018-11-23T07:18:38.180Z,91.00
2018-11-23T07:21:06.816Z,91.10
2018-11-23T07:23:35.514Z,91.10
2018-11-23T07:26:04.161Z,90.90
2018-11-23T07:28:32.817Z,90.80
2018-11-23T07:31:02.482Z,91.00
2018-11-23T07:33:30.133Z,91.40
2018-11-23T07:35:58.792Z,91.20
2018-11-23T07:38:27.462Z,91.30
2018-11-23T07:41:07.458Z,91.10
2018-11-23T07:43:36.113Z,90.90
2018-11-23T07:46:04.780Z,91.00
2018-11-23T07:48:33.463Z,91.10
2018-11-23T07:51:02.408Z,91.00
2018-11-23T07:53:31.082Z,91.10
2018-11-23T07:55:59.730Z,91.00
2018-11-23T07:58:28.692Z,91.00
2018-11-23T08:00:57.377Z,91.00
2018-11-23T08:03:26.032Z,91.00
2018-11-23T08:05:54.701Z,90.90
2018-11-23T08:08:23.321Z,91.00
2018-11-23T08:10:51.335Z,90.70
2018-11-23T08:13:19.988Z,90.60
2018-11-23T08:15:48.755Z,90.80
2018-11-23T08:18:17.960Z,90.60
2018-11-23T08:20:47.536Z,90.50
2018-11-23T08:23:16.160Z,90.50
2018-11-23T08:25:44.804Z,90.30
2018-11-23T08:28:13.441Z,90.50
2018-11-23T08:30:42.092Z,90.50
2018-11-23T08:33:10.829Z,90.30
2018-11-23T08:35:39.790Z,90.40
2018-11-23T08:38:08.492Z,90.60
2018-11-23T08:40:37.128Z,90.50
2018-11-23T08:43:05.824Z,90.50
2018-11-23T08:45:34.465Z,90.60
2018-11-23T08:48:03.199Z,90.80
2018-11-23T08:50:31.927Z,90.90
2018-11-23T08:53:00.577Z,90.80
2018-11-23T08:55:29.214Z,90.90
2018-11-23T08:57:57.864Z,90.90
2018-11-23T09:00:27.550Z,90.60
2018-11-23T09:02:57.672Z,90.90
2018-11-23T09:05:26.412Z,90.90
2018-11-23T09:07:55.992Z,90.90
2018-11-23T09:10:26.053Z,90.90
2018-11-23T09:12:56.271Z,90.70
2018-11-23T09:15:24.991Z,90.40
2018-11-23T09:17:53.630Z,90.50
2018-11-23T09:20:22.263Z,90.40
2018-11-23T09:22:51.041Z,90.40
2018-11-23T09:25:20.884Z,90.20
2018-11-23T09:27:49.601Z,90.30
2018-11-23T09:30:19.945Z,90.30
2018-11-23T09:32:49.396Z,90.40
2018-11-23T09:35:18.688Z,90.40
2018-11-23T09:37:47.892Z,90.30
2018-11-23T09:40:18.061Z,90.20
2018-11-23T09:42:46.691Z,90.10
2018-11-23T09:45:17.359Z,90.10
2018-11-23T09:47:46.969Z,90.00
2018-11-23T09:50:17.913Z,90.00
2018-11-23T09:52:47.472Z,90.20
2018-11-23T09:55:16.230Z,90.10
2018-11-23T09:57:45.118Z,90.00
2018-11-23T10:00:16.656Z,89.50
2018-11-23T10:02:46.046Z,89.50
2018-11-23T10:05:15.345Z,90.00
2018-11-23T10:07:46.207Z,89.90
2018-11-23T10:10:15.769Z,90.10
2018-11-23T10:12:44.613Z,90.10
2018-11-23T10:15:14.792Z,89.70
2018-11-23T10:17:43.517Z,89.70
2018-11-23T10:20:15.810Z,89.50
2018-11-23T10:22:44.844Z,89.30
2018-11-23T10:25:14.745Z,88.90
2018-11-23T10:27:43.949Z,88.80
2018-11-23T10:30:15.200Z,89.00
2018-11-23T10:32:44.365Z,89.10
2018-11-23T10:35:13.033Z,89.10
2018-11-23T10:37:42.453Z,88.70
2018-11-23T10:40:13.515Z,88.00
2018-11-23T10:42:42.493Z,87.60
2018-11-23T10:45:14.120Z,86.60
2018-11-23T10:47:42.837Z,85.90
2018-11-23T10:50:13.708Z,85.30
2018-11-23T10:52:42.369Z,84.40
2018-11-23T10:55:13.653Z,84.80
2018-11-23T10:57:42.385Z,85.10
2018-11-23T11:00:17.769Z,85.20
2018-11-23T11:02:52.329Z,85.60
2018-11-23T11:05:26.475Z,85.70
2018-11-23T11:07:56.222Z,85.80
2018-11-23T11:10:25.085Z,85.90
2018-11-23T11:12:53.779Z,85.00
2018-11-23T11:15:22.729Z,85.00
2018-11-23T11:17:51.482Z,85.40
2018-11-23T11:20:21.125Z,85.30
2018-11-23T11:22:50.797Z,85.30
2018-11-23T11:30:16.546Z,85.40
2018-11-23T11:32:45.825Z,85.40
2018-11-23T11:35:14.574Z,85.80
2018-11-23T11:37:43.636Z,85.70
2018-11-23T11:40:13.691Z,85.80
2018-11-23T11:42:43.157Z,85.80
2018-11-23T11:45:13.321Z,85.30
2018-11-23T11:47:43.083Z,85.60
2018-11-23T11:50:12.482Z,85.40
2018-11-23T11:52:42.357Z,85.40
2018-11-23T11:55:13.135Z,85.50
2018-11-23T11:57:42.691Z,85.70
2018-11-23T12:00:16.635Z,85.80
2018-11-23T12:02:45.446Z,85.90
2018-11-23T12:05:14.419Z,85.50
2018-11-23T12:07:43.221Z,86.00
2018-11-23T12:10:14.576Z,85.50
2018-11-23T12:12:51.000Z,85.00
2018-11-23T12:15:30.152Z,84.60
2018-11-23T12:18:03.489Z,84.60
2018-11-23T12:20:41.042Z,84.10
2018-11-23T12:23:22.820Z,84.50
2018-11-23T12:28:33.688Z,84.90
2018-11-23T12:31:15.387Z,84.90
2018-11-23T12:33:55.349Z,84.20
2018-11-23T12:36:29.065Z,83.90
2018-11-23T12:39:01.516Z,84.30
2018-11-23T12:41:43.619Z,84.50
2018-11-23T12:44:20.033Z,84.70
2018-11-23T12:46:54.745Z,84.70
2018-11-23T12:49:30.940Z,84.50
2018-11-23T12:52:13.072Z,84.30
2018-11-23T12:54:59.633Z,84.20
2018-11-23T12:57:36.556Z,84.60
2018-11-23T13:00:08.570Z,84.40
2018-11-23T13:02:37.459Z,84.30
2018-11-23T13:05:06.388Z,84.60
2018-11-23T13:07:37.119Z,84.60
2018-11-23T13:10:28.791Z,85.00
2018-11-23T13:13:07.655Z,85.20
2018-11-23T13:15:44.582Z,85.00
2018-11-23T13:18:18.368Z,84.80
2018-11-23T13:20:47.126Z,84.90
2018-11-23T13:23:15.851Z,85.60
2018-11-23T13:25:44.707Z,85.30
2018-11-23T13:28:13.713Z,85.30
2018-11-23T13:30:42.662Z,85.40
2018-11-23T13:33:23.632Z,85.50
2018-11-23T13:35:55.009Z,85.70
2018-11-23T13:38:23.943Z,86.00
2018-11-23T13:40:52.766Z,86.30
2018-11-23T13:43:21.656Z,86.20
2018-11-23T13:45:50.730Z,85.80
2018-11-23T13:48:20.079Z,85.80
2018-11-23T13:50:48.605Z,86.10
2018-11-23T13:53:17.456Z,85.60
2018-11-23T13:55:46.361Z,85.60
2018-11-23T13:58:15.416Z,85.90
2018-11-23T14:03:24.869Z,85.50
2018-11-23T14:05:56.637Z,85.20
2018-11-23T14:08:28.457Z,85.00
2018-11-23T14:11:03.793Z,85.70
2018-11-23T14:13:35.996Z,85.70
2018-11-23T14:16:10.312Z,85.60
2018-11-23T14:18:42.767Z,85.90
2018-11-23T14:21:18.467Z,85.70
2018-11-23T14:23:49.998Z,85.80
2018-11-23T14:26:22.228Z,86.00
2018-11-23T14:29:05.295Z,85.60
2018-11-23T14:31:35.453Z,85.30
2018-11-23T14:34:05.435Z,86.00
2018-11-23T14:36:35.704Z,85.70
2018-11-23T14:39:10.112Z,85.60
2018-11-23T14:41:40.347Z,85.00
2018-11-23T14:44:10.552Z,84.60
2018-11-23T14:46:40.625Z,84.60
2018-11-23T14:49:10.303Z,84.90
2018-11-23T14:51:39.964Z,85.30
2018-11-23T14:54:09.923Z,85.30
2018-11-23T14:56:40.611Z,85.40
2018-11-23T14:59:10.127Z,85.40
2018-11-23T15:01:39.865Z,85.10
2018-11-23T15:04:09.628Z,85.10
2018-11-23T15:06:39.510Z,85.00
2018-11-23T15:09:10.700Z,85.40
2018-11-23T15:11:39.904Z,85.60
2018-11-23T15:14:09.213Z,85.30
2018-11-23T15:16:38.072Z,84.80
2018-11-23T15:19:08.011Z,85.50
2018-11-23T15:21:36.925Z,86.10
2018-11-23T15:24:06.797Z,85.50
2018-11-23T15:26:37.930Z,85.60
2018-11-23T15:29:06.774Z,85.40
2018-11-23T15:31:36.496Z,85.30
2018-11-23T15:34:08.017Z,85.00
2018-11-23T15:36:36.804Z,85.10
2018-11-23T15:39:09.611Z,85.20
2018-11-23T15:41:38.986Z,85.00
2018-11-23T15:44:08.481Z,84.70
2018-11-23T15:46:37.341Z,84.60
2018-11-23T15:49:06.966Z,84.30
2018-11-23T15:51:36.801Z,84.40
2018-11-23T15:54:06.753Z,84.20
2018-11-23T15:56:36.871Z,84.80
2018-11-23T15:59:06.943Z,84.90
2018-11-23T16:01:38.012Z,84.80
2018-11-23T16:04:06.906Z,84.70
2018-11-23T16:06:36.821Z,84.40
2018-11-23T16:09:09.672Z,84.60
2018-11-23T16:11:38.664Z,84.60
2018-11-23T16:14:07.656Z,84.60
2018-11-23T16:16:38.939Z,84.60
2018-11-23T16:19:07.776Z,85.00
2018-11-23T16:21:36.926Z,85.30
2018-11-23T16:24:06.541Z,85.40
2018-11-23T16:26:35.476Z,85.90
2018-11-23T16:29:04.589Z,85.50
2018-11-23T16:31:33.532Z,85.60
2018-11-23T16:34:02.546Z,85.10
2018-11-23T16:36:31.441Z,85.10
2018-11-23T16:39:00.289Z,85.20
2018-11-23T16:41:29.236Z,85.60
2018-11-23T16:43:58.048Z,85.50
2018-11-23T16:46:27.077Z,85.80
2018-11-23T16:48:55.913Z,85.90
2018-11-23T16:51:24.763Z,85.60
2018-11-23T16:53:53.998Z,86.10
2018-11-23T16:56:22.929Z,86.20
2018-11-23T16:58:51.823Z,85.90
2018-11-23T17:01:20.688Z,86.30
2018-11-23T17:03:49.501Z,86.00
2018-11-23T17:06:18.287Z,86.10
2018-11-23T17:08:47.152Z,86.10
2018-11-23T17:11:15.903Z,86.40
2018-11-23T17:13:44.972Z,86.20
2018-11-23T17:16:16.133Z,85.90
2018-11-23T17:18:45.045Z,86.20
2018-11-23T17:23:50.053Z,86.30
2018-11-23T17:26:18.657Z,86.40
2018-11-23T17:28:47.301Z,87.10
2018-11-23T17:31:16.112Z,86.80
2018-11-23T17:33:45.074Z,86.80
2018-11-23T17:36:13.692Z,86.90
2018-11-23T17:38:47.688Z,86.70
2018-11-23T17:41:10.956Z,87.10
2018-11-23T17:43:39.952Z,87.40
2018-11-23T17:46:08.614Z,87.10
2018-11-23T17:48:37.647Z,86.70
2018-11-23T17:51:07.009Z,86.40
2018-11-23T17:53:35.912Z,86.80
2018-11-23T17:56:04.564Z,86.90
2018-11-23T17:58:33.387Z,86.70
2018-11-23T18:01:02.907Z,86.70
2018-11-23T18:03:31.581Z,86.60
2018-11-23T18:06:00.305Z,86.90
2018-11-23T18:08:28.916Z,86.90
2018-11-23T18:10:57.605Z,86.90
2018-11-23T18:13:26.307Z,88.00
2018-11-23T18:15:55.112Z,87.00
2018-11-23T18:18:24.100Z,86.90
2018-11-23T18:20:52.775Z,86.90
2018-11-23T18:23:21.458Z,87.00
2018-11-23T18:25:50.298Z,86.60
2018-11-23T18:28:19.021Z,87.10
2018-11-23T18:30:47.748Z,87.30
2018-11-23T18:33:16.404Z,87.40
2018-11-23T18:35:45.241Z,87.80
2018-11-23T18:38:13.848Z,88.00
2018-11-23T18:40:42.540Z,87.70
2018-11-23T18:43:11.177Z,87.10
2018-11-23T18:45:39.816Z,87.30
2018-11-23T18:48:08.503Z,87.70
2018-11-23T18:50:37.208Z,87.40
2018-11-23T18:53:05.852Z,87.70
2018-11-23T18:55:34.550Z,87.70
2018-11-23T18:58:03.468Z,87.70
2018-11-23T19:00:32.467Z,87.30
2018-11-23T19:03:01.121Z,87.40
2018-11-23T19:05:30.133Z,87.80
2018-11-23T19:07:58.708Z,88.20
2018-11-23T19:10:27.396Z,88.20
2018-11-23T19:12:56.024Z,88.80
2018-11-23T19:15:25.798Z,88.70
2018-11-23T19:17:53.336Z,87.80
2018-11-23T19:20:22.676Z,88.20
2018-11-23T19:22:52.339Z,88.20
2018-11-23T19:25:21.083Z,87.30
2018-11-23T19:27:49.733Z,87.30
2018-11-23T19:30:28.049Z,87.80
2018-11-23T19:32:50.997Z,87.30
2018-11-23T19:35:19.804Z,87.60
2018-11-23T19:37:48.551Z,87.50
2018-11-23T19:40:17.510Z,87.50
2018-11-23T19:42:46.169Z,87.60
2018-11-23T19:45:16.089Z,87.80
2018-11-23T19:47:44.784Z,87.80
2018-11-23T19:50:15.339Z,87.90
2018-11-23T19:52:44.018Z,87.30
2018-11-23T19:55:14.550Z,87.90
2018-11-23T19:57:43.265Z,87.20
2018-11-23T20:00:29.932Z,87.00
2018-11-23T20:02:58.597Z,87.50
2018-11-23T20:05:27.282Z,88.70
2018-11-23T20:07:56.638Z,88.80
2018-11-23T20:10:25.798Z,87.70
2018-11-23T20:12:55.875Z,86.90
2018-11-23T20:15:24.593Z,87.30
2018-11-23T20:17:53.310Z,87.40
2018-11-23T20:20:21.953Z,87.40
2018-11-23T20:22:50.832Z,87.30
2018-11-23T20:25:20.272Z,87.00
2018-11-23T20:27:50.363Z,87.20
2018-11-23T20:30:19.546Z,87.50
2018-11-23T20:32:48.476Z,87.30
2018-11-23T20:35:21.192Z,88.10
2018-11-23T20:37:49.828Z,87.20
2018-11-23T20:40:19.502Z,87.30
2018-11-23T20:42:48.723Z,87.20
2018-11-23T20:45:17.381Z,87.50
2018-11-23T20:47:46.097Z,87.80
2018-11-23T20:50:15.522Z,88.40
2018-11-23T20:52:44.194Z,89.40
2018-11-23T20:55:14.887Z,88.60
2018-11-23T20:57:43.474Z,89.00
2018-11-23T21:00:15.843Z,89.80
2018-11-23T21:02:44.938Z,90.10
2018-11-23T21:05:14.423Z,90.00
2018-11-23T21:07:43.322Z,89.40
2018-11-23T21:10:20.132Z,90.20
2018-11-23T21:12:41.578Z,90.40
2018-11-23T21:15:29.568Z,90.50
2018-11-23T21:20:35.608Z,89.90
2018-11-23T21:23:04.267Z,90.00
2018-11-23T21:25:32.926Z,90.00
2018-11-23T21:28:01.597Z,90.00
2018-11-23T21:30:30.264Z,89.50
2018-11-23T21:32:58.888Z,89.00
2018-11-23T21:35:27.537Z,89.70
2018-11-23T21:37:56.184Z,88.80
2018-11-23T21:40:25.064Z,89.40
2018-11-23T21:42:53.758Z,90.10
2018-11-23T21:45:22.386Z,90.40
2018-11-23T21:47:51.037Z,90.50
2018-11-23T21:50:25.010Z,90.00
2018-11-23T21:52:49.147Z,90.00
2018-11-23T21:55:21.838Z,90.10
2018-11-23T21:57:50.707Z,90.00
2018-11-23T22:00:19.423Z,90.30
2018-11-23T22:02:48.356Z,90.30
2018-11-23T22:05:16.984Z,90.00
2018-11-23T22:07:45.726Z,90.30
2018-11-23T22:10:16.122Z,90.20
2018-11-23T22:12:44.813Z,90.20
2018-11-23T22:15:14.841Z,90.50
2018-11-23T22:17:43.645Z,90.10
2018-11-23T22:20:14.282Z,90.20
2018-11-23T22:22:43.201Z,90.20
2018-11-23T22:25:12.860Z,90.40
2018-11-23T22:27:41.848Z,90.20
2018-11-23T22:30:15.072Z,90.20
2018-11-23T22:32:43.717Z,90.20
2018-11-23T22:35:12.898Z,90.10
2018-11-23T22:37:41.568Z,89.70
2018-11-23T22:40:14.892Z,90.10
2018-11-23T22:42:44.722Z,90.00
2018-11-23T22:45:14.206Z,89.90
2018-11-23T22:47:42.812Z,89.90
2018-11-23T22:50:16.489Z,90.40
2018-11-23T22:52:45.118Z,90.00
2018-11-23T22:55:14.309Z,89.50
2018-11-23T22:57:42.925Z,90.00
2018-11-23T23:00:20.012Z,90.00
2018-11-23T23:02:49.055Z,89.90
2018-11-23T23:05:18.309Z,89.90
2018-11-23T23:07:47.087Z,89.90
2018-11-23T23:10:15.708Z,89.90
2018-11-23T23:12:44.447Z,90.00
2018-11-23T23:15:13.036Z,89.00
2018-11-23T23:17:42.023Z,88.60
2018-11-23T23:20:11.885Z,89.70
2018-11-23T23:22:40.530Z,88.90
2018-11-23T23:25:10.262Z,90.00
2018-11-23T23:27:39.115Z,89.00
2018-11-23T23:30:15.057Z,89.80
2018-11-23T23:32:44.140Z,90.00
2018-11-23T23:35:13.641Z,90.00
2018-11-23T23:37:42.341Z,90.00
2018-11-23T23:40:12.985Z,90.40
2018-11-23T23:42:41.626Z,90.20
2018-11-23T23:45:11.120Z,90.10
2018-11-23T23:47:39.782Z,90.30
2018-11-23T23:50:11.012Z,90.10
2018-11-23T23:52:39.631Z,90.20
2018-11-23T23:55:08.965Z,90.50
2018-11-23T23:57:38.911Z,90.50
